sensor_id;sensor_type;location;lat;lon;timestamp;pressure;altitude;pressure_sealevel;temperature;humidity
12213;BME280;6169;44.158;22.788;2023-09-19T00:04:43;101344.47;;;21.81;49.94
12213;BME280;6169;44.158;22.788;2023-09-19T00:09:45;101342.34;;;21.54;50.29
12213;BME280;6169;44.158;22.788;2023-09-19T00:14:49;101344.63;;;21.47;50.81
12213;BME280;6169;44.158;22.788;2023-09-19T00:19:51;101344.06;;;21.69;49.14
12213;BME280;6169;44.158;22.788;2023-09-19T00:24:53;101344.25;;;21.78;49.79
12213;BME280;6169;44.158;22.788;2023-09-19T00:29:57;101328.91;;;21.86;49.07
12213;BME280;6169;44.158;22.788;2023-09-19T00:35:00;101343.72;;;21.76;48.96
12213;BME280;6169;44.158;22.788;2023-09-19T00:40:04;101325.75;;;21.49;51.08
12213;BME280;6169;44.158;22.788;2023-09-19T00:45:09;101324.34;;;21.76;49.81
12213;BME280;6169;44.158;22.788;2023-09-19T00:50:13;101319.13;;;21.93;49.44
12213;BME280;6169;44.158;22.788;2023-09-19T00:55:18;101322.25;;;21.44;50.18
12213;BME280;6169;44.158;22.788;2023-09-19T01:00:22;101324.44;;;21.23;51.62
12213;BME280;6169;44.158;22.788;2023-09-19T01:05:25;101323.50;;;21.56;51.01
12213;BME280;6169;44.158;22.788;2023-09-19T01:10:27;101334.78;;;21.60;49.64
12213;BME280;6169;44.158;22.788;2023-09-19T01:15:50;101336.19;;;21.09;51.66
12213;BME280;6169;44.158;22.788;2023-09-19T01:20:57;101349.44;;;21.36;51.22
12213;BME280;6169;44.158;22.788;2023-09-19T01:26:14;101347.50;;;21.37;51.32
12213;BME280;6169;44.158;22.788;2023-09-19T01:31:21;101292.19;;;21.37;50.52
12213;BME280;6169;44.158;22.788;2023-09-19T01:36:27;101341.13;;;21.85;50.25
12213;BME280;6169;44.158;22.788;2023-09-19T01:41:40;101337.88;;;21.58;51.12
12213;BME280;6169;44.158;22.788;2023-09-19T01:46:45;101331.31;;;21.73;50.10
12213;BME280;6169;44.158;22.788;2023-09-19T01:51:52;101271.56;;;21.48;50.24
12213;BME280;6169;44.158;22.788;2023-09-19T01:57:03;101349.22;;;21.33;51.92
12213;BME280;6169;44.158;22.788;2023-09-19T02:02:12;101339.91;;;21.72;50.71
12213;BME280;6169;44.158;22.788;2023-09-19T02:07:15;101331.19;;;21.83;50.16
12213;BME280;6169;44.158;22.788;2023-09-19T02:12:18;101328.78;;;21.96;50.31
12213;BME280;6169;44.158;22.788;2023-09-19T02:17:22;101344.09;;;21.45;51.49
12213;BME280;6169;44.158;22.788;2023-09-19T02:22:26;101352.22;;;21.36;52.02
12213;BME280;6169;44.158;22.788;2023-09-19T02:27:28;101327.78;;;21.68;51.00
12213;BME280;6169;44.158;22.788;2023-09-19T02:32:32;101327.31;;;21.60;51.54
12213;BME280;6169;44.158;22.788;2023-09-19T02:37:37;101318.16;;;21.84;50.85
12213;BME280;6169;44.158;22.788;2023-09-19T02:42:42;101308.94;;;21.70;51.18
12213;BME280;6169;44.158;22.788;2023-09-19T02:47:49;101308.59;;;21.52;52.14
12213;BME280;6169;44.158;22.788;2023-09-19T02:52:51;101313.59;;;21.93;50.68
12213;BME280;6169;44.158;22.788;2023-09-19T02:57:54;101319.78;;;21.85;50.98
12213;BME280;6169;44.158;22.788;2023-09-19T03:02:57;101321.91;;;21.93;50.74
12213;BME280;6169;44.158;22.788;2023-09-19T03:08:00;101313.28;;;21.76;51.19
12213;BME280;6169;44.158;22.788;2023-09-19T03:13:03;101312.91;;;20.91;54.57
12213;BME280;6169;44.158;22.788;2023-09-19T03:18:06;101321.88;;;20.44;56.89
12213;BME280;6169;44.158;22.788;2023-09-19T03:23:09;101310.94;;;21.40;53.54
12213;BME280;6169;44.158;22.788;2023-09-19T03:28:11;101297.25;;;21.54;53.34
12213;BME280;6169;44.158;22.788;2023-09-19T03:33:14;101298.09;;;21.49;53.45
12213;BME280;6169;44.158;22.788;2023-09-19T03:38:17;101302.31;;;21.90;52.77
12213;BME280;6169;44.158;22.788;2023-09-19T03:43:19;101289.28;;;22.09;51.37
12213;BME280;6169;44.158;22.788;2023-09-19T03:48:23;101288.16;;;21.91;53.84
12213;BME280;6169;44.158;22.788;2023-09-19T03:53:25;101284.56;;;21.72;54.11
12213;BME280;6169;44.158;22.788;2023-09-19T03:58:27;101275.00;;;21.64;54.57
12213;BME280;6169;44.158;22.788;2023-09-19T04:03:30;101262.72;;;21.70;54.45
12213;BME280;6169;44.158;22.788;2023-09-19T04:08:46;101257.88;;;21.81;53.72
12213;BME280;6169;44.158;22.788;2023-09-19T04:13:49;101254.66;;;21.74;53.51
12213;BME280;6169;44.158;22.788;2023-09-19T04:18:53;101267.56;;;21.97;52.95
12213;BME280;6169;44.158;22.788;2023-09-19T04:23:55;101277.25;;;21.81;53.43
12213;BME280;6169;44.158;22.788;2023-09-19T04:28:57;101273.34;;;21.82;54.18
12213;BME280;6169;44.158;22.788;2023-09-19T04:34:00;101269.75;;;21.63;54.42
12213;BME280;6169;44.158;22.788;2023-09-19T04:39:05;101284.47;;;21.10;57.33
12213;BME280;6169;44.158;22.788;2023-09-19T04:44:08;101309.91;;;20.54;60.15
12213;BME280;6169;44.158;22.788;2023-09-19T04:49:12;101310.25;;;21.05;57.90
12213;BME280;6169;44.158;22.788;2023-09-19T04:54:14;101303.72;;;21.20;57.50
12213;BME280;6169;44.158;22.788;2023-09-19T04:59:16;101285.38;;;21.91;54.77
12213;BME280;6169;44.158;22.788;2023-09-19T05:04:20;101286.28;;;21.87;55.11
12213;BME280;6169;44.158;22.788;2023-09-19T05:09:22;101277.75;;;21.83;55.05
12213;BME280;6169;44.158;22.788;2023-09-19T05:14:25;101268.06;;;22.37;54.59
12213;BME280;6169;44.158;22.788;2023-09-19T05:19:28;101266.66;;;22.54;52.21
12213;BME280;6169;44.158;22.788;2023-09-19T05:24:31;101267.47;;;22.40;54.17
12213;BME280;6169;44.158;22.788;2023-09-19T05:29:33;101277.53;;;21.98;55.88
12213;BME280;6169;44.158;22.788;2023-09-19T05:34:36;101276.47;;;22.32;54.09
12213;BME280;6169;44.158;22.788;2023-09-19T05:39:38;101277.03;;;22.62;53.92
12213;BME280;6169;44.158;22.788;2023-09-19T05:44:41;101292.84;;;21.53;59.88
12213;BME280;6169;44.158;22.788;2023-09-19T05:49:44;101287.50;;;21.13;61.71
12213;BME280;6169;44.158;22.788;2023-09-19T05:54:46;101286.88;;;21.41;59.88
12213;BME280;6169;44.158;22.788;2023-09-19T05:59:49;101291.00;;;21.43;60.37
12213;BME280;6169;44.158;22.788;2023-09-19T06:04:53;101281.81;;;21.48;58.53
12213;BME280;6169;44.158;22.788;2023-09-19T06:09:56;101286.50;;;21.71;57.87
12213;BME280;6169;44.158;22.788;2023-09-19T06:14:58;101285.44;;;22.05;54.72
12213;BME280;6169;44.158;22.788;2023-09-19T06:20:03;101290.31;;;22.32;53.90
12213;BME280;6169;44.158;22.788;2023-09-19T06:25:05;101288.75;;;22.26;51.66
12213;BME280;6169;44.158;22.788;2023-09-19T06:30:09;101284.03;;;21.89;52.59
12213;BME280;6169;44.158;22.788;2023-09-19T06:35:14;101285.84;;;21.98;51.35
12213;BME280;6169;44.158;22.788;2023-09-19T06:40:17;101271.06;;;22.41;51.03
12213;BME280;6169;44.158;22.788;2023-09-19T06:45:20;101279.03;;;22.42;49.51
12213;BME280;6169;44.158;22.788;2023-09-19T06:50:24;101289.72;;;21.97;49.91
12213;BME280;6169;44.158;22.788;2023-09-19T06:55:26;101294.13;;;21.60;48.11
12213;BME280;6169;44.158;22.788;2023-09-19T07:00:32;101292.22;;;22.18;50.01
12213;BME280;6169;44.158;22.788;2023-09-19T07:05:38;101287.41;;;22.23;45.75
12213;BME280;6169;44.158;22.788;2023-09-19T07:10:41;101280.75;;;22.57;47.81
12213;BME280;6169;44.158;22.788;2023-09-19T07:15:48;101288.28;;;22.84;48.79
12213;BME280;6169;44.158;22.788;2023-09-19T07:20:57;101285.06;;;22.31;48.84
12213;BME280;6169;44.158;22.788;2023-09-19T07:26:01;101284.84;;;22.60;49.69
12213;BME280;6169;44.158;22.788;2023-09-19T07:31:05;101285.97;;;22.91;49.58
12213;BME280;6169;44.158;22.788;2023-09-19T07:36:12;101294.81;;;23.07;49.19
12213;BME280;6169;44.158;22.788;2023-09-19T07:41:15;101288.00;;;22.86;49.10
12213;BME280;6169;44.158;22.788;2023-09-19T07:46:17;101284.34;;;22.58;49.03
12213;BME280;6169;44.158;22.788;2023-09-19T07:51:21;101283.84;;;22.69;49.34
12213;BME280;6169;44.158;22.788;2023-09-19T07:56:23;101282.69;;;22.57;50.02
12213;BME280;6169;44.158;22.788;2023-09-19T08:01:26;101278.81;;;22.06;51.65
12213;BME280;6169;44.158;22.788;2023-09-19T08:06:30;101281.25;;;22.59;51.11
12213;BME280;6169;44.158;22.788;2023-09-19T08:11:32;101293.06;;;22.65;50.05
12213;BME280;6169;44.158;22.788;2023-09-19T08:16:35;101281.50;;;22.77;49.46
12213;BME280;6169;44.158;22.788;2023-09-19T08:21:38;101277.06;;;22.29;50.76
12213;BME280;6169;44.158;22.788;2023-09-19T08:26:40;101264.22;;;22.00;50.72
12213;BME280;6169;44.158;22.788;2023-09-19T08:31:43;101265.69;;;22.77;49.42
12213;BME280;6169;44.158;22.788;2023-09-19T08:36:47;101267.78;;;22.85;48.56
12213;BME280;6169;44.158;22.788;2023-09-19T08:41:49;101276.94;;;23.27;47.67
12213;BME280;6169;44.158;22.788;2023-09-19T08:47:05;101288.13;;;23.22;45.93
12213;BME280;6169;44.158;22.788;2023-09-19T08:52:18;101296.25;;;23.82;43.53
12213;BME280;6169;44.158;22.788;2023-09-19T08:57:22;101288.53;;;23.43;42.94
12213;BME280;6169;44.158;22.788;2023-09-19T09:02:25;101279.38;;;23.29;43.06
12213;BME280;6169;44.158;22.788;2023-09-19T09:07:30;101279.25;;;23.62;43.64
12213;BME280;6169;44.158;22.788;2023-09-19T09:12:32;101275.25;;;24.04;43.18
12213;BME280;6169;44.158;22.788;2023-09-19T09:17:34;101282.66;;;24.85;41.35
12213;BME280;6169;44.158;22.788;2023-09-19T09:22:38;101276.75;;;24.86;40.37
12213;BME280;6169;44.158;22.788;2023-09-19T09:27:49;101276.75;;;24.55;41.40
12213;BME280;6169;44.158;22.788;2023-09-19T09:33:18;101274.66;;;24.92;40.59
12213;BME280;6169;44.158;22.788;2023-09-19T09:38:22;101279.69;;;24.59;40.99
12213;BME280;6169;44.158;22.788;2023-09-19T09:43:28;101275.59;;;24.56;41.49
12213;BME280;6169;44.158;22.788;2023-09-19T09:48:30;101265.81;;;24.90;40.70
12213;BME280;6169;44.158;22.788;2023-09-19T09:53:34;101269.97;;;24.70;40.23
12213;BME280;6169;44.158;22.788;2023-09-19T09:58:49;101245.31;;;24.46;41.29
12213;BME280;6169;44.158;22.788;2023-09-19T10:03:57;101247.13;;;23.83;42.04
12213;BME280;6169;44.158;22.788;2023-09-19T10:09:03;101245.41;;;24.10;42.81
12213;BME280;6169;44.158;22.788;2023-09-19T10:14:12;101235.06;;;24.55;41.01
12213;BME280;6169;44.158;22.788;2023-09-19T10:19:16;101223.91;;;24.78;41.24
12213;BME280;6169;44.158;22.788;2023-09-19T10:24:27;101224.22;;;24.22;42.49
12213;BME280;6169;44.158;22.788;2023-09-19T10:29:34;101219.34;;;24.59;41.21
12213;BME280;6169;44.158;22.788;2023-09-19T10:34:38;101223.41;;;24.84;41.57
12213;BME280;6169;44.158;22.788;2023-09-19T10:39:48;101231.84;;;25.02;40.79
12213;BME280;6169;44.158;22.788;2023-09-19T10:44:52;101224.50;;;25.14;41.15
12213;BME280;6169;44.158;22.788;2023-09-19T10:49:55;101216.81;;;25.11;40.46
12213;BME280;6169;44.158;22.788;2023-09-19T10:55:00;101209.34;;;25.38;40.39
12213;BME280;6169;44.158;22.788;2023-09-19T11:00:05;101194.94;;;25.71;38.75
12213;BME280;6169;44.158;22.788;2023-09-19T11:05:22;101197.72;;;26.05;38.17
12213;BME280;6169;44.158;22.788;2023-09-19T11:10:46;101195.97;;;25.92;37.97
12213;BME280;6169;44.158;22.788;2023-09-19T11:16:18;101196.81;;;26.48;38.00
12213;BME280;6169;44.158;22.788;2023-09-19T11:21:52;101181.16;;;27.03;36.71
12213;BME280;6169;44.158;22.788;2023-09-19T11:27:18;101176.09;;;27.47;36.47
12213;BME280;6169;44.158;22.788;2023-09-19T11:44:35;101151.63;;;27.65;35.76
12213;BME280;6169;44.158;22.788;2023-09-19T11:49:40;101136.47;;;27.87;35.48
12213;BME280;6169;44.158;22.788;2023-09-19T11:54:43;101129.69;;;28.34;35.55
12213;BME280;6169;44.158;22.788;2023-09-19T11:59:49;101126.78;;;27.85;35.72
12213;BME280;6169;44.158;22.788;2023-09-19T12:04:54;101113.09;;;27.92;34.69
12213;BME280;6169;44.158;22.788;2023-09-19T12:10:03;101113.56;;;27.40;35.75
12213;BME280;6169;44.158;22.788;2023-09-19T12:15:09;101108.31;;;27.59;35.72
12213;BME280;6169;44.158;22.788;2023-09-19T12:20:12;101115.03;;;27.79;34.94
12213;BME280;6169;44.158;22.788;2023-09-19T12:25:14;101105.97;;;28.52;34.56
12213;BME280;6169;44.158;22.788;2023-09-19T12:30:19;101090.84;;;27.95;34.08
12213;BME280;6169;44.158;22.788;2023-09-19T12:35:29;101111.41;;;28.24;34.68
12213;BME280;6169;44.158;22.788;2023-09-19T12:40:35;101101.63;;;28.67;34.28
12213;BME280;6169;44.158;22.788;2023-09-19T12:45:42;101099.53;;;28.15;33.15
12213;BME280;6169;44.158;22.788;2023-09-19T12:51:04;101106.44;;;27.96;34.73
12213;BME280;6169;44.158;22.788;2023-09-19T12:56:08;101097.78;;;28.22;34.24
12213;BME280;6169;44.158;22.788;2023-09-19T13:01:16;101087.78;;;28.46;33.19
12213;BME280;6169;44.158;22.788;2023-09-19T13:06:35;101077.75;;;28.82;33.64
12213;BME280;6169;44.158;22.788;2023-09-19T13:11:41;101074.53;;;28.96;32.70
12213;BME280;6169;44.158;22.788;2023-09-19T13:16:57;101086.38;;;28.64;32.72
12213;BME280;6169;44.158;22.788;2023-09-19T13:21:59;101085.00;;;28.70;33.13
12213;BME280;6169;44.158;22.788;2023-09-19T13:27:01;101077.53;;;28.38;33.13
12213;BME280;6169;44.158;22.788;2023-09-19T13:32:06;101086.25;;;28.12;33.81
12213;BME280;6169;44.158;22.788;2023-09-19T13:37:08;101083.22;;;28.17;33.27
12213;BME280;6169;44.158;22.788;2023-09-19T13:42:11;101080.78;;;28.03;34.38
12213;BME280;6169;44.158;22.788;2023-09-19T13:47:15;101084.78;;;27.81;33.40
12213;BME280;6169;44.158;22.788;2023-09-19T13:52:17;101080.97;;;27.98;34.66
12213;BME280;6169;44.158;22.788;2023-09-19T13:57:19;101069.72;;;28.31;32.88
12213;BME280;6169;44.158;22.788;2023-09-19T14:02:23;101074.25;;;28.48;32.99
12213;BME280;6169;44.158;22.788;2023-09-19T14:07:25;101065.63;;;28.41;34.09
12213;BME280;6169;44.158;22.788;2023-09-19T14:12:27;101064.19;;;27.98;33.87
12213;BME280;6169;44.158;22.788;2023-09-19T14:17:31;101055.03;;;28.34;34.08
12213;BME280;6169;44.158;22.788;2023-09-19T14:22:33;101050.16;;;28.31;34.47
12213;BME280;6169;44.158;22.788;2023-09-19T14:27:35;101042.00;;;28.26;33.67
12213;BME280;6169;44.158;22.788;2023-09-19T14:32:39;101042.47;;;28.16;34.04
12213;BME280;6169;44.158;22.788;2023-09-19T14:37:41;101039.81;;;27.74;34.17
12213;BME280;6169;44.158;22.788;2023-09-19T14:42:43;101038.31;;;27.43;36.18
12213;BME280;6169;44.158;22.788;2023-09-19T14:47:47;101037.38;;;27.72;34.73
12213;BME280;6169;44.158;22.788;2023-09-19T14:52:49;101036.91;;;27.37;36.38
12213;BME280;6169;44.158;22.788;2023-09-19T14:57:52;101038.72;;;27.54;37.61
12213;BME280;6169;44.158;22.788;2023-09-19T15:02:57;101035.53;;;27.76;36.35
12213;BME280;6169;44.158;22.788;2023-09-19T15:07:59;101035.34;;;27.48;37.22
12213;BME280;6169;44.158;22.788;2023-09-19T15:13:03;101039.53;;;27.54;36.38
12213;BME280;6169;44.158;22.788;2023-09-19T15:18:07;101040.94;;;27.27;37.58
12213;BME280;6169;44.158;22.788;2023-09-19T15:23:09;101050.06;;;27.36;37.89
12213;BME280;6169;44.158;22.788;2023-09-19T15:28:13;101065.19;;;27.14;36.65
12213;BME280;6169;44.158;22.788;2023-09-19T15:33:17;101073.75;;;27.09;37.66
12213;BME280;6169;44.158;22.788;2023-09-19T15:38:19;101065.97;;;26.73;38.02
12213;BME280;6169;44.158;22.788;2023-09-19T15:43:21;101052.13;;;26.26;40.87
12213;BME280;6169;44.158;22.788;2023-09-19T15:48:25;101047.38;;;26.26;40.52
12213;BME280;6169;44.158;22.788;2023-09-19T15:53:27;101037.66;;;26.33;41.92
12213;BME280;6169;44.158;22.788;2023-09-19T15:58:30;101041.88;;;26.09;43.27
12213;BME280;6169;44.158;22.788;2023-09-19T16:03:35;101053.28;;;25.78;44.12
12213;BME280;6169;44.158;22.788;2023-09-19T16:08:39;101052.13;;;25.70;44.81
12213;BME280;6169;44.158;22.788;2023-09-19T16:13:42;101058.94;;;25.26;47.26
12213;BME280;6169;44.158;22.788;2023-09-19T16:18:47;100977.91;;;25.19;46.09
12213;BME280;6169;44.158;22.788;2023-09-19T16:23:50;101044.97;;;25.52;48.84
12213;BME280;6169;44.158;22.788;2023-09-19T16:28:55;101064.78;;;24.98;50.70
12213;BME280;6169;44.158;22.788;2023-09-19T16:34:02;101075.38;;;24.79;49.84
12213;BME280;6169;44.158;22.788;2023-09-19T16:39:05;101080.63;;;24.71;48.75
12213;BME280;6169;44.158;22.788;2023-09-19T16:44:08;101074.59;;;25.04;48.84
12213;BME280;6169;44.158;22.788;2023-09-19T16:49:13;101058.41;;;24.89;47.86
12213;BME280;6169;44.158;22.788;2023-09-19T16:54:15;101058.69;;;24.70;50.52
12213;BME280;6169;44.158;22.788;2023-09-19T16:59:18;101055.44;;;24.19;50.73
12213;BME280;6169;44.158;22.788;2023-09-19T17:04:25;101069.63;;;23.87;53.65
12213;BME280;6169;44.158;22.788;2023-09-19T17:09:27;101070.88;;;24.03;50.75
12213;BME280;6169;44.158;22.788;2023-09-19T17:14:29;101079.09;;;24.17;52.54
12213;BME280;6169;44.158;22.788;2023-09-19T17:19:37;101091.34;;;24.07;54.79
12213;BME280;6169;44.158;22.788;2023-09-19T17:24:39;101105.09;;;24.12;53.87
12213;BME280;6169;44.158;22.788;2023-09-19T17:29:41;101111.19;;;23.69;54.24
12213;BME280;6169;44.158;22.788;2023-09-19T17:34:46;101129.47;;;23.48;55.37
12213;BME280;6169;44.158;22.788;2023-09-19T17:39:49;101139.28;;;23.54;54.45
12213;BME280;6169;44.158;22.788;2023-09-19T17:44:51;101140.56;;;23.48;54.80
12213;BME280;6169;44.158;22.788;2023-09-19T17:49:55;101150.03;;;23.47;53.46
12213;BME280;6169;44.158;22.788;2023-09-19T17:54:57;101148.72;;;23.67;53.67
12213;BME280;6169;44.158;22.788;2023-09-19T17:59:59;101141.56;;;23.74;53.23
12213;BME280;6169;44.158;22.788;2023-09-19T18:05:03;101139.19;;;24.04;52.11
12213;BME280;6169;44.158;22.788;2023-09-19T18:10:07;101145.94;;;23.67;54.14
12213;BME280;6169;44.158;22.788;2023-09-19T18:15:09;101167.59;;;23.42;55.07
12213;BME280;6169;44.158;22.788;2023-09-19T18:20:14;101171.00;;;23.25;55.42
12213;BME280;6169;44.158;22.788;2023-09-19T18:25:17;101146.75;;;23.67;52.80
12213;BME280;6169;44.158;22.788;2023-09-19T18:30:20;101130.09;;;23.67;50.95
12213;BME280;6169;44.158;22.788;2023-09-19T18:35:23;101124.31;;;24.09;49.88
12213;BME280;6169;44.158;22.788;2023-09-19T18:40:28;101114.34;;;24.08;49.82
12213;BME280;6169;44.158;22.788;2023-09-19T18:45:30;101129.00;;;23.54;54.04
12213;BME280;6169;44.158;22.788;2023-09-19T18:50:34;101153.50;;;23.38;55.22
12213;BME280;6169;44.158;22.788;2023-09-19T18:55:37;101174.63;;;23.12;56.62
12213;BME280;6169;44.158;22.788;2023-09-19T19:00:39;101156.97;;;23.58;53.30
12213;BME280;6169;44.158;22.788;2023-09-19T19:05:43;101143.16;;;23.89;52.34
12213;BME280;6169;44.158;22.788;2023-09-19T19:10:46;101166.03;;;23.50;54.94
12213;BME280;6169;44.158;22.788;2023-09-19T19:15:48;101167.50;;;23.33;56.40
12213;BME280;6169;44.158;22.788;2023-09-19T19:20:58;101168.16;;;23.16;56.56
12213;BME280;6169;44.158;22.788;2023-09-19T19:26:01;101177.56;;;23.29;56.62
12213;BME280;6169;44.158;22.788;2023-09-19T19:31:05;101173.25;;;23.73;52.95
12213;BME280;6169;44.158;22.788;2023-09-19T19:36:11;101172.28;;;23.55;53.07
12213;BME280;6169;44.158;22.788;2023-09-19T19:41:15;101176.47;;;23.67;53.13
12213;BME280;6169;44.158;22.788;2023-09-19T19:46:17;101165.44;;;23.39;53.37
12213;BME280;6169;44.158;22.788;2023-09-19T19:51:21;101168.41;;;23.29;55.32
12213;BME280;6169;44.158;22.788;2023-09-19T19:56:23;101174.50;;;23.17;55.88
12213;BME280;6169;44.158;22.788;2023-09-19T20:01:25;101168.88;;;23.08;54.83
12213;BME280;6169;44.158;22.788;2023-09-19T20:06:30;101179.63;;;23.24;54.39
12213;BME280;6169;44.158;22.788;2023-09-19T20:11:32;101183.69;;;23.54;53.06
12213;BME280;6169;44.158;22.788;2023-09-19T20:16:34;101173.56;;;23.35;53.52
12213;BME280;6169;44.158;22.788;2023-09-19T20:21:38;101165.94;;;23.41;52.85
12213;BME280;6169;44.158;22.788;2023-09-19T20:26:41;101188.59;;;23.07;54.96
12213;BME280;6169;44.158;22.788;2023-09-19T20:31:44;101185.91;;;22.60;57.46
12213;BME280;6169;44.158;22.788;2023-09-19T20:36:47;101176.66;;;23.20;54.13
12213;BME280;6169;44.158;22.788;2023-09-19T20:41:50;101170.66;;;23.41;52.69
12213;BME280;6169;44.158;22.788;2023-09-19T20:46:52;101168.63;;;22.82;54.53
12213;BME280;6169;44.158;22.788;2023-09-19T20:51:56;101171.84;;;23.12;54.18
12213;BME280;6169;44.158;22.788;2023-09-19T20:56:58;101175.34;;;23.04;54.04
12213;BME280;6169;44.158;22.788;2023-09-19T21:02:01;101178.66;;;23.06;54.21
12213;BME280;6169;44.158;22.788;2023-09-19T21:07:05;101189.19;;;23.17;54.27
12213;BME280;6169;44.158;22.788;2023-09-19T21:12:07;101197.91;;;22.56;56.40
12213;BME280;6169;44.158;22.788;2023-09-19T21:17:09;101199.78;;;22.74;55.82
12213;BME280;6169;44.158;22.788;2023-09-19T21:22:13;101177.97;;;22.26;57.33
12213;BME280;6169;44.158;22.788;2023-09-19T21:27:16;101179.88;;;22.72;55.67
12213;BME280;6169;44.158;22.788;2023-09-19T21:32:20;101176.66;;;23.20;54.02
12213;BME280;6169;44.158;22.788;2023-09-19T21:37:25;101168.78;;;23.00;55.09
12213;BME280;6169;44.158;22.788;2023-09-19T21:42:27;101167.03;;;22.90;54.43
12213;BME280;6169;44.158;22.788;2023-09-19T21:47:29;101158.81;;;23.12;54.40
12213;BME280;6169;44.158;22.788;2023-09-19T21:52:34;101186.13;;;22.64;56.08
12213;BME280;6169;44.158;22.788;2023-09-19T21:57:36;101176.97;;;22.49;56.07
12213;BME280;6169;44.158;22.788;2023-09-19T22:02:38;101183.25;;;22.69;55.58
12213;BME280;6169;44.158;22.788;2023-09-19T22:07:42;101184.97;;;22.65;55.06
12213;BME280;6169;44.158;22.788;2023-09-19T22:12:44;101192.38;;;22.69;55.18
12213;BME280;6169;44.158;22.788;2023-09-19T22:17:47;101193.66;;;22.31;56.62
12213;BME280;6169;44.158;22.788;2023-09-19T22:22:51;101210.03;;;22.60;55.43
12213;BME280;6169;44.158;22.788;2023-09-19T22:27:54;101202.03;;;22.12;57.13
12213;BME280;6169;44.158;22.788;2023-09-19T22:32:56;101195.00;;;22.33;55.98
12213;BME280;6169;44.158;22.788;2023-09-19T22:38:02;101195.28;;;22.18;56.77
12213;BME280;6169;44.158;22.788;2023-09-19T22:43:05;101188.63;;;22.19;57.08
12213;BME280;6169;44.158;22.788;2023-09-19T22:48:08;101191.00;;;22.39;55.72
12213;BME280;6169;44.158;22.788;2023-09-19T22:53:14;101184.28;;;22.13;57.11
12213;BME280;6169;44.158;22.788;2023-09-19T22:58:20;101183.59;;;22.21;56.67
12213;BME280;6169;44.158;22.788;2023-09-19T23:03:23;101183.09;;;22.00;57.29
12213;BME280;6169;44.158;22.788;2023-09-19T23:08:31;101189.22;;;22.16;56.33
12213;BME280;6169;44.158;22.788;2023-09-19T23:13:33;101188.13;;;21.98;56.48
12213;BME280;6169;44.158;22.788;2023-09-19T23:18:39;101182.41;;;22.08;55.96
12213;BME280;6169;44.158;22.788;2023-09-19T23:23:45;101180.66;;;21.98;56.62
12213;BME280;6169;44.158;22.788;2023-09-19T23:28:47;101178.44;;;21.81;57.33
12213;BME280;6169;44.158;22.788;2023-09-19T23:33:52;101184.44;;;22.02;56.22
12213;BME280;6169;44.158;22.788;2023-09-19T23:38:56;101176.41;;;21.87;56.54
12213;BME280;6169;44.158;22.788;2023-09-19T23:43:58;101192.66;;;20.65;61.91
12213;BME280;6169;44.158;22.788;2023-09-19T23:49:00;101186.59;;;20.68;62.24
12213;BME280;6169;44.158;22.788;2023-09-19T23:54:09;101182.69;;;20.93;61.62
12213;BME280;6169;44.158;22.788;2023-09-19T23:59:15;101174.72;;;21.72;57.59
